Teigen, MT

6:01 AM MST on March 02, 2015 (GMT -0700)
Lewistown Municipal | Change Station
CLOSE
Current Station
Airport
Location: Lewistown,
Elevation: 4167 ft
Nearby Weather Stations
Active Advisory: Wind Chill Advisory

Elev 4167 ft 47.05 °N, 109.47 °W | Updated 7 minutes ago

Clear
Clear
24 °F
Feels Like 18 °F
N
5
Wind Variable Wind from North

Today
High -- | Low -- °F
--% Chance of Precip.
Yesterday
High -- | Low -- °F
Precip. -- in
6:52 AM 6:01 PM
Waxing Gibbous, 91% visible
Pressure 29.89 in
Visibility 10.0 miles
Clouds Clear
Windchill 18 °F
Dew Point 8 °F
Humidity 51%
Rainfall 0.00 in
Snow Depth Not available.
UV 0 out of 12
Pollen .10 out of 12
Air Quality Not available.
Flu Activity Not available.
METAR KLWT 021254Z AUTO 01004KT 10SM CLR M04/M13 A2978 RMK AO2 SLP121 T10441133

More Conditions Fewer Conditions

Pressure 29.89 in
Visibility 10.0 miles
Clouds Clear
Windchill 18 °F
Dew Point 8 °F
Humidity 51%
Rainfall 0.00 in
Snow Depth Not available.
UV 0 out of 12
Pollen .10 out of 12
Air Quality Not available.
Flu Activity Not available.
METAR KLWT 021254Z AUTO 01004KT 10SM CLR M04/M13 A2978 RMK AO2 SLP121 T10441133

More Conditions Fewer Conditions

10-Day Weather Forecast

Almanac

Astronomy

Mar. 02, 2015 Rise Set
Actual Time
Civil Twilight
Nautical Twilight
Astronomical Twilight
Moon
Length of Visible Light
Length of Day
Tomorrow will be .
, % of the Moon is Illuminated

Today's Extremes

State Highs State Lows

Community

WunderPhotos

Upload Photos

1,801,777 photos uploaded!

WunderBlogs® & News

Nearby

Air Quality

  Air Quality AQ Index Pollutant
Not available.

Snow Depth

Station Depth Elevation

Earthquake Activity

City Distance Mag. Time & Date
Minimum magnitude displayed is 2.5.

Coastal Water Temperatures

Place Temperature

Nearby Weather Stations

Wind Chill Advisory
Statement as of 3:14 AM MST on March 02, 2015

... Wind Chill Advisory in effect from 7 PM this evening to noon
MST Wednesday...

The National Weather Service in Glasgow has issued a Wind Chill
Advisory... which is in effect from 7 PM this evening to noon MST
Wednesday.

* Timing... this evening through Wednesday morning.

* Wind chill values... 20 below to 30 below tonight... then 25 below
to 40 below Tuesday night.

* Other impacts... areas of blowing snow could occasionally reduce
visibility below one-half mile this afternoon through early
Tuesday morning. Little or no accumulations is expected in most
areas. Southwest Phillips and Petroleum counties will have
around an inch of snow.

Precautionary/preparedness actions...

Try to dress adequately. Be sure to wear layered light weight and
wind proof clothing... and wear a hat and mittens for protection
from the dangers of frostbite.

Pets and Newborn livestock should also be protected from these
conditions.